Time;durP1;ratioP1;P1;durP2;ratioP2;P2;SDS_P1;SDS_P2;PMS_P1;PMS_P2;Temp;Humidity;BMP_temperature;BMP_pressure;BME280_temperature;BME280_humidity;BME280_pressure;Samples;Min_cycle;Max_cycle;Signal;HPM_P1;HPM_P2
2021/09/22 00:02:19;;;;;;;22.20;16.37;;;;;;;9.41;87.19;99495.35;2310486;76;20948;-79
2021/09/22 00:05:19;;;;;;;21.93;17.23;;;;;;;9.43;87.49;99490.18;2317021;76;20987;-79
2021/09/22 00:08:20;;;;;;;21.70;17.40;;;;;;;9.41;87.93;99487.95;2309806;77;20928;-80
2021/09/22 00:11:20;;;;;;;22.23;17.03;;;;;;;9.38;88.02;99485.27;2308604;77;20943;-79
2021/09/22 00:14:21;;;;;;;25.30;17.30;;;;;;;9.35;87.63;99485.19;2312622;76;21327;-79
2021/09/22 00:17:22;;;;;;;19.23;16.43;;;;;;;9.36;87.75;99483.92;2311634;76;20995;-79
2021/09/22 00:20:25;;;;;;;20.57;16.27;;;;;;;9.35;87.78;99481.28;2296488;76;20947;-79
2021/09/22 00:23:26;;;;;;;22.58;17.52;;;;;;;9.33;87.85;99479.05;2333435;74;21363;-79
2021/09/22 00:26:26;;;;;;;19.73;16.63;;;;;;;9.33;87.89;99469.52;2297605;77;20959;-79
2021/09/22 00:29:27;;;;;;;25.37;17.10;;;;;;;9.32;88.03;99468.17;2284007;77;20932;-79
2021/09/22 00:32:27;;;;;;;22.17;17.07;;;;;;;9.31;87.89;99471.20;2376052;75;20959;-79
2021/09/22 00:35:28;;;;;;;26.97;19.20;;;;;;;9.29;88.25;99472.88;2362286;75;21257;-79
2021/09/22 00:38:28;;;;;;;23.70;19.40;;;;;;;9.26;88.08;99469.77;2291618;76;20923;-79
2021/09/22 00:41:28;;;;;;;24.43;19.03;;;;;;;9.27;88.43;99466.75;2319963;75;20980;-79
2021/09/22 00:44:29;;;;;;;22.10;18.10;;;;;;;9.28;88.38;99466.33;2366503;75;20939;-79
2021/09/22 00:47:29;;;;;;;22.13;16.80;;;;;;;9.27;88.47;99462.84;2285426;76;21018;-79
2021/09/22 00:50:30;;;;;;;16.17;13.23;;;;;;;9.24;88.96;99459.73;2342827;75;21014;-80
2021/09/22 00:53:30;;;;;;;18.77;14.50;;;;;;;9.19;88.71;99458.73;2375519;75;21309;-80
2021/09/22 00:56:31;;;;;;;17.00;13.40;;;;;;;9.16;89.52;99461.66;2279349;76;21001;-79
2021/09/22 00:59:31;;;;;;;18.57;14.47;;;;;;;9.10;89.33;99465.41;2332233;75;20956;-79
2021/09/22 01:05:34;;;;;;;16.87;14.83;;;;;;;8.94;89.02;99445.45;2289866;77;20959;-80
2021/09/22 01:08:35;;;;;;;17.47;15.10;;;;;;;8.90;89.40;99446.63;2314294;76;21284;-80
2021/09/22 01:11:35;;;;;;;17.63;15.70;;;;;;;8.85;89.96;99448.22;2313357;76;20929;-80
2021/09/22 01:14:36;;;;;;;17.80;15.10;;;;;;;8.81;89.42;99444.65;2314374;74;20948;-80
2021/09/22 01:17:37;;;;;;;18.33;16.33;;;;;;;8.78;89.64;99438.05;2322680;76;20987;-80
2021/09/22 01:20:37;;;;;;;23.37;17.40;;;;;;;8.77;89.60;99436.71;2313906;77;20952;-79
2021/09/22 01:23:38;;;;;;;19.53;17.07;;;;;;;8.75;90.60;99434.48;2308679;77;20944;-80
2021/09/22 01:26:38;;;;;;;19.63;17.07;;;;;;;8.74;90.06;99429.70;2315032;76;20944;-80
2021/09/22 01:29:39;;;;;;;21.43;18.37;;;;;;;8.73;90.01;99432.26;2315389;76;21307;-81
2021/09/22 01:32:39;;;;;;;23.67;18.10;;;;;;;8.73;89.71;99436.16;2283038;76;21327;-79
2021/09/22 01:35:40;;;;;;;22.13;18.83;;;;;;;8.72;89.90;99432.67;2364675;75;20908;-80
2021/09/22 01:38:40;;;;;;;26.23;19.30;;;;;;;8.70;89.92;99425.24;2298811;76;20940;-80
2021/09/22 01:41:41;;;;;;;24.17;18.50;;;;;;;8.71;90.53;99430.91;2339713;75;21004;-80
2021/09/22 01:44:41;;;;;;;23.70;19.60;;;;;;;8.70;90.05;99424.36;2329822;75;20944;-80
2021/09/22 01:47:42;;;;;;;23.00;18.90;;;;;;;8.69;90.52;99423.48;2310444;76;20952;-81
2021/09/22 01:50:42;;;;;;;23.77;19.13;;;;;;;8.70;90.15;99423.06;2290161;76;21348;-81
2021/09/22 01:53:43;;;;;;;26.37;19.83;;;;;;;8.71;90.49;99420.50;2318856;77;20987;-82
2021/09/22 01:56:43;;;;;;;24.37;20.63;;;;;;;8.71;90.26;99421.80;2318805;76;20928;-81
2021/09/22 01:59:44;;;;;;;25.73;19.67;;;;;;;8.72;90.35;99414.45;2316742;77;20940;-80
2021/09/22 02:02:44;;;;;;;25.20;20.73;;;;;;;8.75;90.27;99413.66;2312911;76;20944;-80
2021/09/22 02:05:45;;;;;;;26.70;20.23;;;;;;;8.73;90.83;99403.62;2315217;77;20936;-80
2021/09/22 02:08:45;;;;;;;24.30;19.17;;;;;;;8.73;90.50;99409.72;2310903;76;21356;-80
2021/09/22 02:11:46;;;;;;;24.03;18.97;;;;;;;8.72;90.66;99409.67;2310254;77;20953;-81
2021/09/22 02:14:46;;;;;;;25.13;17.77;;;;;;;8.68;90.75;99404.80;2313441;76;20916;-81
2021/09/22 02:17:47;;;;;;;22.10;18.33;;;;;;;8.69;90.30;99401.36;2317738;76;20995;-79
2021/09/22 02:20:49;;;;;;;20.77;18.57;;;;;;;8.73;91.41;99399.30;2286800;77;20992;-80
2021/09/22 02:23:50;;;;;;;22.40;18.67;;;;;;;8.76;90.55;99397.20;2314278;76;20916;-82
2021/09/22 02:26:52;;;;;;;23.63;17.90;;;;;;;8.87;90.98;99385.36;2291286;76;21359;-81
2021/09/22 02:29:52;;;;;;;23.77;18.33;;;;;;;9.01;91.15;99380.52;2351636;74;21014;-80
2021/09/22 02:32:54;;;;;;;20.50;16.93;;;;;;;8.97;89.90;99382.59;2362950;75;20964;-81
2021/09/22 02:35:54;;;;;;;18.83;16.83;;;;;;;8.87;89.76;99385.36;2275295;77;20968;-81
2021/09/22 02:38:55;;;;;;;22.03;16.97;;;;;;;8.78;90.32;99392.92;2345351;75;20983;-80
2021/09/22 02:41:55;;;;;;;18.30;16.10;;;;;;;8.72;90.40;99392.75;2339639;75;20954;-82
2021/09/22 02:44:56;;;;;;;20.03;16.03;;;;;;;8.62;90.74;99394.19;2370690;75;20944;-81
2021/09/22 02:47:56;;;;;;;20.67;15.67;;;;;;;8.56;90.32;99387.09;2333913;75;21351;-81
2021/09/22 02:50:57;;;;;;;18.90;16.13;;;;;;;8.51;90.44;99389.09;2364853;75;20928;-81
2021/09/22 02:53:58;;;;;;;21.70;16.23;;;;;;;8.47;90.94;99391.14;2274910;76;20940;-80
2021/09/22 02:56:58;;;;;;;19.20;16.63;;;;;;;8.44;91.43;99383.25;2331014;75;20936;-80
2021/09/22 02:59:59;;;;;;;19.57;16.13;;;;;;;8.41;91.09;99377.96;2299337;77;20974;-81
2021/09/22 03:03:00;;;;;;;17.07;14.67;;;;;;;8.40;90.90;99385.30;2282058;76;21029;-81
2021/09/22 03:06:00;;;;;;;20.10;15.07;;;;;;;8.38;91.09;99384.37;2310208;76;20947;-80
2021/09/22 03:09:01;;;;;;;16.93;13.90;;;;;;;8.37;91.34;99385.22;2313688;76;21355;-81
2021/09/22 03:12:01;;;;;;;18.03;14.33;;;;;;;8.36;91.04;99383.45;2322242;76;21019;-80
2021/09/22 03:15:02;;;;;;;16.37;13.97;;;;;;;8.33;91.34;99381.64;2312750;76;20999;-80
2021/09/22 03:18:02;;;;;;;25.40;15.20;;;;;;;8.29;91.33;99379.75;2302799;76;21325;-78
2021/09/22 03:21:03;;;;;;;19.77;15.33;;;;;;;8.36;93.10;99379.55;2318133;76;21335;-80
2021/09/22 03:24:03;;;;;;;15.90;13.40;;;;;;;9.45;93.48;99376.03;2313436;76;21320;-79
2021/09/22 03:27:04;;;;;;;19.57;13.20;;;;;;;9.28;88.84;99370.81;2321463;76;21161;-80
2021/09/22 03:30:05;;;;;;;15.97;12.93;;;;;;;8.98;88.61;99376.54;2320947;77;21015;-80
2021/09/22 03:33:06;;;;;;;14.43;12.90;;;;;;;8.78;89.15;99372.09;2307645;76;21403;-80
2021/09/22 03:36:06;;;;;;;15.70;13.27;;;;;;;8.65;89.43;99376.05;2282743;77;20959;-80
2021/09/22 03:39:07;;;;;;;15.87;13.50;;;;;;;8.55;89.76;99375.33;2310495;76;20968;-80
2021/09/22 03:42:07;;;;;;;15.87;12.33;;;;;;;8.51;89.98;99376.09;2308550;76;20952;-79
2021/09/22 03:45:08;;;;;;;16.17;13.27;;;;;;;8.48;90.14;99384.69;2312135;76;21031;-80
2021/09/22 03:48:08;;;;;;;16.57;14.27;;;;;;;8.44;90.16;99384.55;2309831;76;21166;-80
2021/09/22 03:51:09;;;;;;;18.33;14.70;;;;;;;8.40;90.60;99380.09;2311313;76;20952;-82
2021/09/22 03:54:09;;;;;;;17.27;12.70;;;;;;;8.39;90.52;99384.42;2305678;76;20959;-81
2021/09/22 03:57:10;;;;;;;18.27;14.07;;;;;;;8.41;90.54;99380.56;2275209;76;20998;-82
2021/09/22 04:00:10;;;;;;;16.87;13.23;;;;;;;8.41;90.90;99387.06;2315018;76;20947;-81
2021/09/22 04:03:11;;;;;;;15.00;13.30;;;;;;;8.38;90.77;99390.87;2314983;76;20975;-80
2021/09/22 04:06:11;;;;;;;19.50;14.13;;;;;;;8.36;90.52;99388.66;2313484;77;20955;-80
2021/09/22 04:09:14;;;;;;;19.53;14.60;;;;;;;8.36;91.14;99386.05;2305850;77;20940;-80
2021/09/22 04:12:14;;;;;;;19.00;14.73;;;;;;;8.34;91.16;99395.53;2309051;76;20928;-81
2021/09/22 04:15:15;;;;;;;20.63;15.10;;;;;;;8.35;91.07;99385.59;2309041;77;21131;-80
2021/09/22 04:18:15;;;;;;;19.40;15.00;;;;;;;8.35;91.20;99394.69;2312999;76;21395;-80
2021/09/22 04:21:16;;;;;;;23.27;15.70;;;;;;;8.34;91.28;99386.42;2273513;76;20958;-81
2021/09/22 04:24:16;;;;;;;31.43;20.83;;;;;;;8.35;91.71;99381.27;2291764;77;20967;-81
2021/09/22 04:27:18;;;;;;;21.77;16.17;;;;;;;8.35;91.69;99381.27;2282913;76;21374;-81
2021/09/22 04:30:18;;;;;;;20.43;16.23;;;;;;;8.33;91.77;99380.34;2312657;76;20959;-80
2021/09/22 04:33:19;;;;;;;19.13;15.77;;;;;;;8.30;91.58;99384.13;2310952;77;20925;-80
2021/09/22 04:36:19;;;;;;;18.17;15.50;;;;;;;8.28;91.89;99389.70;2277609;76;21438;-80
2021/09/22 04:39:20;;;;;;;19.17;14.87;;;;;;;8.27;91.99;99394.44;2375992;75;20944;-82
2021/09/22 04:42:21;;;;;;;16.27;14.50;;;;;;;8.27;92.21;99395.73;2362260;75;21010;-81
2021/09/22 04:45:22;;;;;;;13.27;11.47;;;;;;;8.28;92.30;99402.70;2296584;77;20962;-81
2021/09/22 04:48:23;;;;;;;13.83;12.07;;;;;;;8.26;92.42;99399.17;2326255;75;20990;-81
2021/09/22 04:51:23;;;;;;;12.77;11.47;;;;;;;8.25;92.14;99415.19;2375170;75;20917;-82
2021/09/22 04:54:24;;;;;;;18.83;11.70;;;;;;;8.18;91.98;99417.15;2327144;75;20934;-81
2021/09/22 04:57:25;;;;;;;14.27;11.63;;;;;;;8.16;91.59;99421.42;2314621;76;21327;-80
2021/09/22 05:00:26;;;;;;;13.97;12.40;;;;;;;8.15;91.45;99410.97;2272477;77;20942;-81
2021/09/22 05:03:26;;;;;;;13.33;11.07;;;;;;;8.17;91.49;99419.28;2307456;77;20993;-82
2021/09/22 05:06:27;;;;;;;16.57;11.47;;;;;;;8.19;91.26;99416.73;2312194;76;21391;-81
2021/09/22 05:09:27;;;;;;;12.77;10.93;;;;;;;8.19;91.19;99421.52;2313923;77;20960;-80
2021/09/22 05:12:28;;;;;;;14.97;12.57;;;;;;;8.21;90.98;99419.84;2309887;77;20974;-81
2021/09/22 05:15:29;;;;;;;11.43;10.23;;;;;;;8.25;91.03;99423.00;2279170;77;21035;-84
2021/09/22 05:18:29;;;;;;;14.37;10.13;;;;;;;8.29;90.81;99420.95;2316821;76;21047;-82
2021/09/22 05:21:30;;;;;;;11.53;9.83;;;;;;;8.38;90.71;99423.40;2307401;76;21014;-80
2021/09/22 05:24:30;;;;;;;15.60;10.80;;;;;;;8.45;90.11;99429.24;2314039;75;20975;-82
2021/09/22 05:27:31;;;;;;;10.80;9.67;;;;;;;8.48;89.80;99422.83;2312820;75;20951;-81
2021/09/22 05:30:31;;;;;;;12.27;10.07;;;;;;;8.52;89.41;99428.17;2313128;75;21027;-82
2021/09/22 05:33:32;;;;;;;11.07;9.07;;;;;;;8.59;89.48;99429.23;2314372;76;21359;-82
2021/09/22 05:36:33;;;;;;;12.57;9.27;;;;;;;8.64;89.00;99430.23;2271525;76;21038;-82
2021/09/22 05:39:33;;;;;;;10.43;9.20;;;;;;;8.70;89.03;99437.37;2295928;76;20995;-81
2021/09/22 05:42:36;;;;;;;10.93;9.60;;;;;;;8.77;88.94;99438.02;2296106;76;21019;-82
2021/09/22 05:45:37;;;;;;;10.43;9.43;;;;;;;8.88;88.93;99438.77;2319598;75;20987;-79
2021/09/22 05:48:37;;;;;;;11.17;9.97;;;;;;;8.97;88.47;99437.27;2361180;75;20967;-79
2021/09/22 05:51:38;;;;;;;10.93;9.77;;;;;;;9.05;88.15;99443.56;2356149;75;20935;-82
2021/09/22 05:54:39;;;;;;;15.23;11.00;;;;;;;9.10;87.91;99445.88;2359422;75;21117;-82
2021/09/22 05:57:41;;;;;;;12.13;10.83;;;;;;;9.14;87.89;99446.00;2272029;76;20922;-82
2021/09/22 06:00:41;;;;;;;14.53;12.23;;;;;;;9.15;87.98;99451.67;2320619;74;20952;-83
2021/09/22 06:03:42;;;;;;;16.10;12.60;;;;;;;9.20;87.62;99452.67;2373260;75;20918;-81
2021/09/22 06:06:42;;;;;;;15.77;12.37;;;;;;;9.24;87.29;99442.80;2273775;77;20966;-82
2021/09/22 06:09:43;;;;;;;15.40;13.00;;;;;;;9.38;87.38;99447.06;2330289;75;21023;-82
2021/09/22 06:12:43;;;;;;;15.70;13.53;;;;;;;9.47;86.39;99457.73;2316627;75;20967;-81
2021/09/22 06:15:44;;;;;;;17.27;13.60;;;;;;;9.53;86.98;99462.22;2313057;77;20965;-82
2021/09/22 06:18:44;;;;;;;14.53;13.00;;;;;;;9.60;86.11;99461.98;2308369;76;21007;-80
2021/09/22 06:21:45;;;;;;;17.23;13.33;;;;;;;9.64;86.01;99459.91;2316272;76;20951;-81
2021/09/22 06:24:46;;;;;;;18.37;13.47;;;;;;;9.71;85.38;99459.23;2313392;76;21399;-83
2021/09/22 06:27:46;;;;;;;14.10;12.40;;;;;;;9.99;85.11;99448.62;2316277;76;20995;-83
2021/09/22 06:30:47;;;;;;;13.90;11.97;;;;;;;10.34;84.49;99455.10;2315567;76;20951;-82
2021/09/22 06:33:48;;;;;;;13.63;11.17;;;;;;;10.78;82.93;99459.58;2305023;75;20991;-81
2021/09/22 06:36:49;;;;;;;13.40;12.00;;;;;;;11.14;81.81;99453.33;2305196;76;21020;-82
2021/09/22 06:39:50;;;;;;;11.93;10.37;;;;;;;11.31;81.36;99453.25;2318333;76;20959;-81
2021/09/22 06:42:50;;;;;;;12.28;11.00;;;;;;;11.22;80.89;99458.70;2311404;75;20967;-82
2021/09/22 06:45:51;;;;;;;11.88;10.40;;;;;;;11.28;81.33;99465.38;2275032;76;20926;-81
2021/09/22 06:48:51;;;;;;;11.30;9.95;;;;;;;11.20;78.42;99480.88;2312376;75;21014;-81
2021/09/22 06:51:52;;;;;;;12.30;10.55;;;;;;;11.05;77.71;99477.97;2308433;76;21030;-82
2021/09/22 06:54:53;;;;;;;11.28;10.05;;;;;;;10.97;79.08;99474.32;2313256;76;21330;-81
2021/09/22 06:57:53;;;;;;;12.23;9.83;;;;;;;10.88;78.61;99467.61;2307854;74;20952;-81
2021/09/22 07:00:54;;;;;;;14.85;10.70;;;;;;;10.83;78.87;99465.78;2311384;76;20992;-81
2021/09/22 07:03:55;;;;;;;10.93;9.83;;;;;;;10.87;79.66;99471.95;2272924;77;21007;-81
2021/09/22 07:06:55;;;;;;;11.17;9.23;;;;;;;10.97;78.79;99479.55;2280338;77;20956;-83
2021/09/22 07:09:56;;;;;;;11.63;10.43;;;;;;;10.92;77.67;99479.88;2288052;76;21367;-82
2021/09/22 07:12:56;;;;;;;13.07;10.20;;;;;;;10.87;78.31;99478.48;2355820;75;20976;-81
2021/09/22 07:15:57;;;;;;;15.03;11.03;;;;;;;10.84;78.27;99486.25;2283664;76;20950;-81
2021/09/22 07:18:58;;;;;;;11.12;9.20;;;;;;;10.94;78.69;99484.28;2323328;74;21188;-82
2021/09/22 07:22:00;;;;;;;11.20;10.15;;;;;;;10.97;78.13;99486.08;2366910;75;21364;-82
2021/09/22 07:25:01;;;;;;;10.33;9.30;;;;;;;10.97;78.14;99496.09;2283631;76;20973;-81
2021/09/22 07:28:02;;;;;;;11.93;9.65;;;;;;;10.97;77.83;99491.30;2327367;74;20983;-82
2021/09/22 07:31:03;;;;;;;12.68;9.15;;;;;;;11.17;78.21;99499.99;2299176;76;20940;-80
2021/09/22 07:34:03;;;;;;;10.63;9.53;;;;;;;11.45;78.38;99488.37;2292293;76;20948;-81
2021/09/22 07:40:06;;;;;;;9.07;8.10;;;;;;;11.68;76.38;99488.78;2288246;76;20964;-81
2021/09/22 07:43:07;;;;;;;10.20;8.05;;;;;;;11.74;76.84;99498.04;2311253;76;20960;-82
2021/09/22 07:46:08;;;;;;;11.08;7.70;;;;;;;11.99;75.80;99498.48;2312510;76;21065;-81
2021/09/22 07:49:09;;;;;;;7.62;6.70;;;;;;;12.27;72.56;99511.19;2292260;76;21006;-82
2021/09/22 07:52:10;;;;;;;7.20;6.37;;;;;;;12.67;73.88;99511.35;2362779;75;20935;-81
2021/09/22 07:55:11;;;;;;;8.45;6.05;;;;;;;13.12;70.74;99516.77;2360317;75;20934;-82
2021/09/22 07:58:12;;;;;;;6.60;5.78;;;;;;;13.12;71.86;99508.91;2362982;75;20948;-82
2021/09/22 08:01:13;;;;;;;5.17;4.78;;;;;;;13.22;70.28;99517.37;2377684;75;20955;-82
2021/09/22 08:04:14;;;;;;;15.98;5.12;;;;;;;13.01;67.02;99517.07;2366793;75;20983;-80
2021/09/22 08:07:17;;;;;;;10.35;4.95;;;;;;;12.81;67.87;99523.75;2290611;76;20970;-81
2021/09/22 08:10:17;;;;;;;8.08;5.10;;;;;;;12.71;69.13;99535.42;2306476;75;21327;-85
2021/09/22 08:13:18;;;;;;;5.53;3.55;;;;;;;12.81;69.95;99526.38;2314985;75;21138;-82
2021/09/22 08:16:19;;;;;;;4.75;4.08;;;;;;;13.25;65.61;99522.64;2321007;75;20994;-83
2021/09/22 08:19:20;;;;;;;8.95;5.22;;;;;;;13.32;68.02;99524.91;2373832;75;20964;-80
2021/09/22 08:22:20;;;;;;;4.78;3.70;;;;;;;13.16;67.23;99529.05;2279833;76;20987;-82
2021/09/22 08:25:21;;;;;;;13.70;3.85;;;;;;;13.01;67.20;99536.72;2372314;75;20957;-82
2021/09/22 08:28:21;;;;;;;6.47;3.67;;;;;;;12.90;65.77;99547.46;2274647;76;20954;-82
2021/09/22 08:31:22;;;;;;;4.75;3.55;;;;;;;12.89;65.84;99540.46;2315417;77;20998;-82
2021/09/22 08:34:23;;;;;;;8.78;3.90;;;;;;;12.97;67.04;99537.52;2313445;74;21353;-84
2021/09/22 08:37:24;;;;;;;9.65;4.33;;;;;;;13.06;65.41;99534.61;2311481;76;20956;-82
2021/09/22 08:40:24;;;;;;;4.90;3.95;;;;;;;13.23;64.51;99536.59;2314944;76;20951;-79
2021/09/22 08:43:25;;;;;;;4.22;3.92;;;;;;;13.49;65.00;99534.28;2311559;76;20968;-83
2021/09/22 08:46:27;;;;;;;3.92;3.42;;;;;;;13.61;63.56;99531.36;2285967;77;20975;-82
2021/09/22 08:49:36;;;;;;;4.03;3.70;;;;;;;13.59;63.63;99540.95;2318208;76;21091;-82
2021/09/22 08:52:37;;;;;;;6.60;3.30;;;;;;;13.60;62.92;99547.95;2311072;76;20952;-82
2021/09/22 08:58:43;;;;;;;6.55;3.75;;;;;;;13.43;62.17;99546.01;2285166;77;21443;-83
2021/09/22 09:01:44;;;;;;;7.62;4.55;;;;;;;13.15;61.74;99540.83;2313326;76;20970;-83
2021/09/22 09:04:44;;;;;;;4.87;4.40;;;;;;;12.89;62.39;99539.16;2309492;76;20936;-82
2021/09/22 09:07:45;;;;;;;4.72;3.75;;;;;;;12.71;63.79;99543.70;2311025;76;20986;-83
2021/09/22 09:10:46;;;;;;;6.40;4.20;;;;;;;12.49;63.15;99539.89;2271813;76;21320;-82
2021/09/22 09:13:46;;;;;;;3.70;3.08;;;;;;;12.32;64.51;99540.06;2318441;75;21316;-83
2021/09/22 09:16:49;;;;;;;4.42;4.03;;;;;;;12.17;64.55;99547.23;2309724;75;20962;-83
2021/09/22 09:19:49;;;;;;;7.47;4.30;;;;;;;12.05;64.72;99547.88;2312511;76;21043;-83
2021/09/22 09:22:50;;;;;;;4.03;3.67;;;;;;;11.94;65.00;99553.36;2311777;76;21003;-83
2021/09/22 09:25:50;;;;;;;11.18;4.95;;;;;;;11.86;66.12;99552.34;2314173;76;20975;-82
2021/09/22 09:28:51;;;;;;;8.10;5.30;;;;;;;11.99;66.75;99550.81;2312354;76;21351;-83
2021/09/22 09:31:51;;;;;;;8.03;5.35;;;;;;;12.22;66.68;99542.08;2315270;75;21002;-82
2021/09/22 09:37:54;;;;;;;7.65;5.53;;;;;;;12.68;66.00;99541.05;2327113;75;21015;-81
2021/09/22 09:40:54;;;;;;;5.80;5.00;;;;;;;12.70;64.86;99543.25;2300557;77;21320;-82
2021/09/22 09:43:55;;;;;;;6.62;5.03;;;;;;;12.78;65.16;99548.17;2282179;77;21035;-83
2021/09/22 09:46:57;;;;;;;23.18;5.72;;;;;;;12.87;63.60;99541.75;2373107;75;20970;-83
2021/09/22 09:49:58;;;;;;;5.55;5.00;;;;;;;13.02;64.83;99542.42;2368095;75;20987;-82
2021/09/22 09:53:00;;;;;;;8.83;4.67;;;;;;;13.04;63.18;99534.14;2363839;74;20938;-83
2021/09/22 09:56:01;;;;;;;15.53;5.17;;;;;;;13.13;63.29;99540.81;2358301;75;20979;-80
2021/09/22 09:59:03;;;;;;;5.50;5.00;;;;;;;13.16;63.97;99539.55;2375694;75;21632;-81
2021/09/22 10:02:03;;;;;;;9.33;6.03;;;;;;;13.15;64.02;99536.47;2360500;75;20965;-82
2021/09/22 10:05:04;;;;;;;7.40;5.50;;;;;;;13.06;63.36;99543.79;2285043;76;20946;-81
2021/09/22 10:08:05;;;;;;;7.47;5.92;;;;;;;12.92;62.04;99537.88;2309303;77;20913;-81
2021/09/22 10:11:05;;;;;;;10.63;6.58;;;;;;;12.84;63.49;99543.45;2309428;77;21000;-82
2021/09/22 10:14:06;;;;;;;5.90;5.40;;;;;;;12.88;62.62;99542.63;2309230;76;20947;-82
2021/09/22 10:17:06;;;;;;;6.35;5.67;;;;;;;12.93;63.03;99540.95;2286486;76;20998;-82
2021/09/22 10:20:08;;;;;;;6.85;6.22;;;;;;;12.98;61.95;99545.83;2314432;77;21018;-79
2021/09/22 10:23:08;;;;;;;6.25;5.60;;;;;;;13.28;62.08;99542.78;2314794;75;21403;-80
2021/09/22 10:26:10;;;;;;;6.40;5.90;;;;;;;13.28;62.08;99542.78;2291959;76;21031;-81
2021/09/22 10:29:11;;;;;;;10.85;5.72;;;;;;;13.41;61.94;99541.18;2341710;75;20956;-80
2021/09/22 10:32:11;;;;;;;5.90;5.30;;;;;;;13.48;61.79;99537.33;2371780;75;20920;-80
2021/09/22 10:35:12;;;;;;;8.68;5.87;;;;;;;13.38;61.26;99540.71;2356606;75;20936;-81
2021/09/22 10:38:12;;;;;;;5.65;5.05;;;;;;;13.05;61.62;99542.03;2283483;77;20924;-81
2021/09/22 10:41:15;;;;;;;6.53;4.83;;;;;;;12.91;61.80;99543.98;2375403;75;20941;-82
2021/09/22 10:44:15;;;;;;;7.20;4.50;;;;;;;12.94;61.21;99542.28;2364941;75;21367;-83
2021/09/22 10:50:18;;;;;;;5.50;4.97;;;;;;;13.09;61.16;99544.25;2328807;75;20970;-81
2021/09/22 10:53:18;;;;;;;5.78;5.08;;;;;;;13.35;60.49;99536.31;2367180;75;20975;-82
2021/09/22 10:56:19;;;;;;;4.97;4.50;;;;;;;13.60;59.18;99531.34;2376847;75;20970;-80
2021/09/22 10:59:19;;;;;;;5.35;4.58;;;;;;;13.64;57.59;99527.45;2378187;74;20992;-81
2021/09/22 11:02:20;;;;;;;5.53;4.70;;;;;;;13.39;59.24;99530.24;2377329;75;20909;-81
2021/09/22 11:05:20;;;;;;;5.67;4.67;;;;;;;13.14;59.09;99529.47;2374359;75;20956;-81
2021/09/22 11:08:21;;;;;;;7.05;5.28;;;;;;;12.96;59.88;99536.63;2372127;75;20958;-78
2021/09/22 11:11:21;;;;;;;7.67;5.15;;;;;;;12.85;59.81;99537.34;2369816;75;21317;-82
2021/09/22 11:14:21;;;;;;;6.15;5.53;;;;;;;12.93;60.27;99534.41;2375537;75;20933;-81
2021/09/22 11:17:22;;;;;;;5.75;5.17;;;;;;;13.04;60.51;99535.45;2368552;75;20919;-82
2021/09/22 11:20:23;;;;;;;9.68;5.67;;;;;;;13.12;60.07;99527.26;2365689;75;20954;-81
2021/09/22 11:23:25;;;;;;;8.40;6.05;;;;;;;13.18;60.80;99535.66;2364347;75;21477;-82
2021/09/22 11:26:26;;;;;;;8.88;5.92;;;;;;;13.17;61.32;99526.92;2367616;75;20973;-82
2021/09/22 11:29:28;;;;;;;6.70;5.78;;;;;;;13.23;61.69;99523.06;2329502;75;20919;-81
2021/09/22 11:32:31;;;;;;;6.92;6.22;;;;;;;13.18;61.02;99522.55;2335928;75;20892;-81
2021/09/22 11:35:31;;;;;;;7.53;5.33;;;;;;;13.11;61.34;99518.95;2365346;75;20945;-81
2021/09/22 11:38:32;;;;;;;7.58;5.28;;;;;;;13.12;61.20;99519.39;2289622;76;20959;-81
2021/09/22 11:41:32;;;;;;;6.75;5.60;;;;;;;13.25;60.80;99520.45;2368668;75;21002;-81
2021/09/22 11:44:33;;;;;;;7.00;4.72;;;;;;;13.26;60.26;99520.47;2375730;75;20952;-81
2021/09/22 11:47:33;;;;;;;4.45;4.05;;;;;;;13.25;59.23;99520.45;2286615;76;21360;-82
2021/09/22 11:50:37;;;;;;;5.42;4.28;;;;;;;13.30;59.49;99523.58;2377200;75;21363;-81
2021/09/22 11:53:39;;;;;;;6.28;4.03;;;;;;;13.42;58.30;99522.84;2375429;75;20971;-81
2021/09/22 11:56:39;;;;;;;8.05;4.62;;;;;;;13.51;59.03;99515.50;2376362;75;20936;-82
2021/09/22 11:59:41;;;;;;;4.70;3.42;;;;;;;13.46;58.19;99530.31;2367345;74;20960;-81
2021/09/22 12:02:42;;;;;;;4.85;3.35;;;;;;;13.44;57.11;99528.98;2363636;75;20932;-81
2021/09/22 12:08:46;;;;;;;4.70;4.30;;;;;;;13.34;56.08;99535.86;2259619;77;21125;-80
2021/09/22 12:11:46;;;;;;;5.95;3.02;;;;;;;13.34;55.24;99533.24;2373407;75;20967;-82
2021/09/22 12:14:47;;;;;;;6.15;3.58;;;;;;;13.34;55.64;99540.23;2360694;75;20981;-81
2021/09/22 12:17:49;;;;;;;3.33;2.98;;;;;;;13.34;57.27;99529.73;2366270;75;20956;-81
2021/09/22 12:20:50;;;;;;;3.83;3.50;;;;;;;13.45;55.27;99529.86;2294949;77;21004;-81
2021/09/22 12:23:52;;;;;;;6.50;3.02;;;;;;;13.32;56.51;99532.34;2288421;76;21351;-81
2021/09/22 12:26:53;;;;;;;4.12;3.40;;;;;;;13.33;56.15;99530.17;2310230;76;21010;-81
2021/09/22 12:29:53;;;;;;;6.42;5.83;;;;;;;13.37;56.04;99538.52;2311151;76;20967;-82
2021/09/22 12:32:54;;;;;;;5.60;5.10;;;;;;;13.46;56.42;99542.11;2307134;77;20975;-83
2021/09/22 12:35:54;;;;;;;5.65;4.40;;;;;;;13.60;56.32;99539.20;2308616;77;21379;-82
2021/09/22 12:38:55;;;;;;;6.92;4.10;;;;;;;13.78;55.58;99530.22;2311236;77;20968;-81
2021/09/22 12:41:55;;;;;;;4.15;3.20;;;;;;;13.92;55.74;99533.88;2311623;76;20964;-82
2021/09/22 12:44:56;;;;;;;3.70;3.40;;;;;;;13.91;55.48;99528.19;2312607;76;21019;-81
2021/09/22 12:47:57;;;;;;;4.75;3.47;;;;;;;13.96;55.04;99529.11;2278590;77;20950;-81
2021/09/22 12:50:58;;;;;;;3.47;3.05;;;;;;;14.24;54.46;99521.47;2312477;76;21045;-82
2021/09/22 12:53:58;;;;;;;3.70;3.22;;;;;;;14.29;53.19;99578.84;2310991;77;20964;-80
2021/09/22 12:56:59;;;;;;;3.83;3.50;;;;;;;13.97;51.99;99524.30;2310295;77;21422;-83
2021/09/22 12:59:59;;;;;;;12.15;8.95;;;;;;;13.75;52.22;99528.87;2313985;77;20964;-81
2021/09/22 13:03:00;;;;;;;7.17;6.47;;;;;;;13.71;52.59;99529.70;2313554;75;20968;-82
2021/09/22 13:06:06;;;;;;;8.08;4.37;;;;;;;13.63;51.38;99527.44;2310170;75;20975;-83
2021/09/22 13:09:06;;;;;;;4.53;4.12;;;;;;;13.50;51.54;99530.79;2312978;76;21020;-82
2021/09/22 13:12:07;;;;;;;5.65;3.80;;;;;;;13.37;52.43;99530.66;2299659;76;21311;-83
2021/09/22 13:15:08;;;;;;;6.60;4.80;;;;;;;13.27;52.87;99534.46;2316249;77;21011;-82
2021/09/22 13:18:08;;;;;;;4.28;3.87;;;;;;;13.29;54.41;99537.55;2284729;76;20958;-80
2021/09/22 13:21:09;;;;;;;3.75;3.45;;;;;;;13.30;53.24;99533.19;2303658;77;21205;-82
2021/09/22 13:24:09;;;;;;;5.42;4.17;;;;;;;13.30;53.87;99534.06;2275961;76;20974;-82
2021/09/22 13:27:10;;;;;;;4.20;3.87;;;;;;;13.31;53.97;99528.39;2290273;76;21045;-82
2021/09/22 13:30:11;;;;;;;5.67;4.47;;;;;;;13.34;53.86;99529.30;2304027;76;20994;-82
2021/09/22 13:33:12;;;;;;;4.25;3.52;;;;;;;13.36;53.08;99538.50;2315013;76;20963;-81
2021/09/22 13:36:12;;;;;;;5.15;3.52;;;;;;;13.24;53.00;99527.87;2315346;76;21321;-83
2021/09/22 13:39:13;;;;;;;5.03;4.53;;;;;;;13.10;54.67;99528.98;2316469;76;20968;-84
2021/09/22 13:42:13;;;;;;;12.35;10.60;;;;;;;13.07;54.35;99536.37;2315733;75;20947;-83
2021/09/22 13:45:14;;;;;;;11.63;9.15;;;;;;;12.99;55.84;99528.81;2316191;76;20987;-83
2021/09/22 13:48:14;;;;;;;4.67;4.15;;;;;;;12.98;55.94;99537.53;2315075;76;20993;-81
2021/09/22 13:51:15;;;;;;;5.97;3.75;;;;;;;12.93;55.34;99543.14;2315772;75;20988;-83
2021/09/22 13:54:15;;;;;;;4.55;3.37;;;;;;;12.82;55.28;99535.56;2314997;76;20932;-82
2021/09/22 13:57:16;;;;;;;3.92;3.10;;;;;;;12.74;56.19;99531.53;2315670;76;20904;-80
2021/09/22 14:00:16;;;;;;;9.40;4.33;;;;;;;12.69;55.86;99537.14;2313932;76;21348;-82
2021/09/22 14:03:17;;;;;;;4.83;3.20;;;;;;;12.65;56.85;99545.81;2316750;76;20916;-81
2021/09/22 14:06:17;;;;;;;8.43;3.40;;;;;;;12.60;57.05;99543.55;2317076;76;20940;-82
2021/09/22 14:09:18;;;;;;;4.22;3.83;;;;;;;12.57;57.92;99534.77;2316595;76;20975;-82
2021/09/22 14:12:19;;;;;;;5.15;4.10;;;;;;;12.50;57.01;99533.80;2316932;76;20990;-83
2021/09/22 14:15:19;;;;;;;4.75;3.47;;;;;;;12.41;57.73;99539.77;2316713;76;20947;-83
2021/09/22 14:18:20;;;;;;;5.28;3.50;;;;;;;12.38;57.05;99547.58;2284581;76;20960;-82
2021/09/22 14:21:22;;;;;;;4.75;3.27;;;;;;;12.31;57.90;99533.06;2316662;76;21418;-83
2021/09/22 14:24:22;;;;;;;5.30;4.22;;;;;;;12.31;58.13;99540.48;2316595;76;20952;-83